createdAt,value
2018-07-10T09:30:27.232Z,3.17
2018-07-10T09:33:16.318Z,3.50
2018-07-10T09:36:04.533Z,2.40
2018-07-10T09:38:52.970Z,2.97
2018-07-10T09:41:41.088Z,2.97
2018-07-10T09:44:29.038Z,3.20
2018-07-10T09:47:17.119Z,4.00
2018-07-10T09:50:04.765Z,3.30
2018-07-10T09:52:52.238Z,2.87
2018-07-10T09:55:39.823Z,3.97
2018-07-10T09:58:27.668Z,3.27
2018-07-10T10:02:06.664Z,2.70
2018-07-10T10:04:54.365Z,2.83
2018-07-10T10:07:42.362Z,2.80
2018-07-10T10:10:30.411Z,2.87
2018-07-10T10:13:22.569Z,2.80
2018-07-10T10:16:15.067Z,2.93
2018-07-10T10:19:06.397Z,2.70
2018-07-10T10:21:53.149Z,3.27
2018-07-10T10:24:41.702Z,3.20
2018-07-10T10:27:30.631Z,4.10
2018-07-10T10:30:18.634Z,4.53
2018-07-10T10:33:06.692Z,3.90
2018-07-10T10:35:55.064Z,3.83
2018-07-10T10:38:47.220Z,3.97
2018-07-10T10:41:33.681Z,5.20
2018-07-10T10:44:20.091Z,4.47
2018-07-10T10:47:06.191Z,4.53
2018-07-10T10:49:51.264Z,4.50
2018-07-10T10:52:38.131Z,4.73
2018-07-10T10:55:26.294Z,5.77
2018-07-10T10:58:12.689Z,5.70
2018-07-10T11:00:58.276Z,5.80
2018-07-10T11:03:45.139Z,5.43
2018-07-10T11:06:34.767Z,5.97
2018-07-10T11:09:21.813Z,5.00
2018-07-10T11:12:08.619Z,4.97
2018-07-10T11:14:54.005Z,5.33
2018-07-10T11:17:45.285Z,5.53
2018-07-10T11:20:49.153Z,5.50
2018-07-10T11:23:42.751Z,5.83
2018-07-10T11:26:48.597Z,5.47
2018-07-10T11:29:34.363Z,4.53
2018-07-10T11:32:26.035Z,4.30
2018-07-10T11:35:13.189Z,4.50
2018-07-10T11:38:08.985Z,4.40
2018-07-10T11:40:56.264Z,3.77
2018-07-10T11:43:44.506Z,3.87
2018-07-10T11:46:29.138Z,4.27
2018-07-10T11:49:16.090Z,4.73
2018-07-10T11:52:02.178Z,5.00
2018-07-10T11:54:51.999Z,5.20
2018-07-10T11:57:37.693Z,5.20
2018-07-10T12:00:25.171Z,5.27
2018-07-10T12:03:11.954Z,6.07
2018-07-10T12:05:57.418Z,6.00
2018-07-10T12:08:42.623Z,5.67
2018-07-10T12:11:29.317Z,6.03
2018-07-10T12:14:15.878Z,5.77
2018-07-10T12:17:02.921Z,6.60
2018-07-10T12:19:54.206Z,5.80
2018-07-10T12:22:43.863Z,6.70
2018-07-10T12:25:29.775Z,6.30
2018-07-10T12:28:18.103Z,6.87
2018-07-10T12:31:03.768Z,6.83
2018-07-10T12:33:49.772Z,6.83
2018-07-10T12:36:36.398Z,6.80
2018-07-10T12:39:21.785Z,7.57
2018-07-10T12:42:08.490Z,7.00
2018-07-10T12:44:53.913Z,7.17
2018-07-10T12:47:41.384Z,7.20
2018-07-10T12:50:27.734Z,7.00
2018-07-10T12:53:14.420Z,7.60
2018-07-10T12:56:04.166Z,7.40
